sensor_id;sensor_type;location;lat;lon;timestamp;P1;durP1;ratioP1;P2;durP2;ratioP2
3613;SDS011;1821;50.936;6.854;2022-12-11T00:00:06;50.75;;;27.83;;
3613;SDS011;1821;50.936;6.854;2022-12-11T00:00:55;50.83;;;27.05;;
3613;SDS011;1821;50.936;6.854;2022-12-11T00:01:37;49.53;;;27.52;;
3613;SDS011;1821;50.936;6.854;2022-12-11T00:02:19;50.30;;;26.80;;
3613;SDS011;1821;50.936;6.854;2022-12-11T00:03:01;48.53;;;26.73;;
3613;SDS011;1821;50.936;6.854;2022-12-11T00:03:45;46.95;;;26.17;;
3613;SDS011;1821;50.936;6.854;2022-12-11T00:04:27;50.13;;;27.17;;
3613;SDS011;1821;50.936;6.854;2022-12-11T00:05:09;55.17;;;27.40;;
3613;SDS011;1821;50.936;6.854;2022-12-11T00:05:54;52.55;;;27.92;;
3613;SDS011;1821;50.936;6.854;2022-12-11T00:06:38;54.00;;;30.33;;
3613;SDS011;1821;50.936;6.854;2022-12-11T00:07:23;50.50;;;28.30;;
3613;SDS011;1821;50.936;6.854;2022-12-11T00:08:05;52.58;;;28.63;;
3613;SDS011;1821;50.936;6.854;2022-12-11T00:08:52;48.42;;;26.88;;
3613;SDS011;1821;50.936;6.854;2022-12-11T00:09:34;53.47;;;27.98;;
3613;SDS011;1821;50.936;6.854;2022-12-11T00:10:16;55.83;;;29.10;;
3613;SDS011;1821;50.936;6.854;2022-12-11T00:10:58;55.30;;;29.13;;
3613;SDS011;1821;50.936;6.854;2022-12-11T00:11:40;49.55;;;28.10;;
3613;SDS011;1821;50.936;6.854;2022-12-11T00:12:21;56.35;;;28.05;;
3613;SDS011;1821;50.936;6.854;2022-12-11T00:13:03;52.67;;;26.95;;
3613;SDS011;1821;50.936;6.854;2022-12-11T00:13:45;49.28;;;27.65;;
3613;SDS011;1821;50.936;6.854;2022-12-11T00:14:30;47.35;;;28.30;;
3613;SDS011;1821;50.936;6.854;2022-12-11T00:15:12;52.33;;;28.02;;
3613;SDS011;1821;50.936;6.854;2022-12-11T00:15:54;51.95;;;27.67;;
3613;SDS011;1821;50.936;6.854;2022-12-11T00:16:41;51.10;;;28.65;;
3613;SDS011;1821;50.936;6.854;2022-12-11T00:17:23;52.28;;;28.05;;
3613;SDS011;1821;50.936;6.854;2022-12-11T00:18:05;53.20;;;27.48;;
3613;SDS011;1821;50.936;6.854;2022-12-11T00:18:48;56.78;;;30.73;;
3613;SDS011;1821;50.936;6.854;2022-12-11T00:19:30;54.75;;;29.77;;
3613;SDS011;1821;50.936;6.854;2022-12-11T00:20:14;54.08;;;29.60;;
3613;SDS011;1821;50.936;6.854;2022-12-11T00:21:03;57.00;;;28.60;;
3613;SDS011;1821;50.936;6.854;2022-12-11T00:21:46;55.50;;;29.98;;
3613;SDS011;1821;50.936;6.854;2022-12-11T00:22:28;52.95;;;29.92;;
3613;SDS011;1821;50.936;6.854;2022-12-11T00:23:10;55.20;;;29.95;;
3613;SDS011;1821;50.936;6.854;2022-12-11T00:23:52;54.83;;;29.90;;
3613;SDS011;1821;50.936;6.854;2022-12-11T00:24:34;53.38;;;29.35;;
3613;SDS011;1821;50.936;6.854;2022-12-11T00:25:16;53.38;;;29.23;;
3613;SDS011;1821;50.936;6.854;2022-12-11T00:25:58;56.83;;;29.90;;
3613;SDS011;1821;50.936;6.854;2022-12-11T00:26:40;57.22;;;29.65;;
3613;SDS011;1821;50.936;6.854;2022-12-11T00:27:21;57.78;;;29.00;;
3613;SDS011;1821;50.936;6.854;2022-12-11T00:28:04;54.67;;;28.48;;
3613;SDS011;1821;50.936;6.854;2022-12-11T00:28:45;50.97;;;29.10;;
3613;SDS011;1821;50.936;6.854;2022-12-11T00:29:27;52.75;;;29.30;;
3613;SDS011;1821;50.936;6.854;2022-12-11T00:30:09;57.17;;;29.30;;
3613;SDS011;1821;50.936;6.854;2022-12-11T00:30:51;55.55;;;29.85;;
3613;SDS011;1821;50.936;6.854;2022-12-11T00:31:33;53.25;;;29.63;;
3613;SDS011;1821;50.936;6.854;2022-12-11T00:32:18;50.40;;;29.08;;
3613;SDS011;1821;50.936;6.854;2022-12-11T00:32:59;53.72;;;29.85;;
3613;SDS011;1821;50.936;6.854;2022-12-11T00:33:41;56.08;;;30.60;;
3613;SDS011;1821;50.936;6.854;2022-12-11T00:34:26;57.83;;;30.38;;
3613;SDS011;1821;50.936;6.854;2022-12-11T00:35:08;56.22;;;29.30;;
3613;SDS011;1821;50.936;6.854;2022-12-11T00:35:50;52.72;;;29.58;;
3613;SDS011;1821;50.936;6.854;2022-12-11T00:36:32;51.72;;;29.65;;
3613;SDS011;1821;50.936;6.854;2022-12-11T00:37:14;53.08;;;30.73;;
3613;SDS011;1821;50.936;6.854;2022-12-11T00:37:58;50.42;;;29.30;;
3613;SDS011;1821;50.936;6.854;2022-12-11T00:38:39;55.90;;;30.65;;
3613;SDS011;1821;50.936;6.854;2022-12-11T00:39:21;56.75;;;29.65;;
3613;SDS011;1821;50.936;6.854;2022-12-11T00:40:03;54.55;;;28.60;;
3613;SDS011;1821;50.936;6.854;2022-12-11T00:40:47;52.75;;;28.67;;
3613;SDS011;1821;50.936;6.854;2022-12-11T00:41:30;52.47;;;28.02;;
3613;SDS011;1821;50.936;6.854;2022-12-11T00:42:12;56.58;;;29.63;;
3613;SDS011;1821;50.936;6.854;2022-12-11T00:42:54;53.70;;;29.08;;
3613;SDS011;1821;50.936;6.854;2022-12-11T00:43:36;52.30;;;28.95;;
3613;SDS011;1821;50.936;6.854;2022-12-11T00:44:17;54.42;;;30.30;;
3613;SDS011;1821;50.936;6.854;2022-12-11T00:45:02;52.30;;;30.00;;
3613;SDS011;1821;50.936;6.854;2022-12-11T00:45:44;50.75;;;28.70;;
3613;SDS011;1821;50.936;6.854;2022-12-11T00:46:28;48.50;;;27.63;;
3613;SDS011;1821;50.936;6.854;2022-12-11T00:47:09;55.80;;;29.50;;
3613;SDS011;1821;50.936;6.854;2022-12-11T00:47:54;54.85;;;30.55;;
3613;SDS011;1821;50.936;6.854;2022-12-11T00:48:36;51.72;;;28.55;;
3613;SDS011;1821;50.936;6.854;2022-12-11T00:49:20;51.90;;;30.38;;
3613;SDS011;1821;50.936;6.854;2022-12-11T00:50:02;53.72;;;30.23;;
3613;SDS011;1821;50.936;6.854;2022-12-11T00:50:47;49.85;;;29.25;;
3613;SDS011;1821;50.936;6.854;2022-12-11T00:51:28;50.83;;;28.90;;
3613;SDS011;1821;50.936;6.854;2022-12-11T00:52:10;48.65;;;27.65;;
3613;SDS011;1821;50.936;6.854;2022-12-11T00:52:52;46.28;;;28.40;;
3613;SDS011;1821;50.936;6.854;2022-12-11T00:53:38;51.10;;;29.77;;
3613;SDS011;1821;50.936;6.854;2022-12-11T00:54:20;50.45;;;28.58;;
3613;SDS011;1821;50.936;6.854;2022-12-11T00:55:02;51.20;;;28.98;;
3613;SDS011;1821;50.936;6.854;2022-12-11T00:55:43;49.00;;;28.45;;
3613;SDS011;1821;50.936;6.854;2022-12-11T00:56:25;47.45;;;27.45;;
3613;SDS011;1821;50.936;6.854;2022-12-11T00:57:07;50.85;;;29.20;;
3613;SDS011;1821;50.936;6.854;2022-12-11T00:57:52;53.30;;;29.88;;
3613;SDS011;1821;50.936;6.854;2022-12-11T00:58:34;48.00;;;29.85;;
3613;SDS011;1821;50.936;6.854;2022-12-11T00:59:16;44.65;;;28.92;;
3613;SDS011;1821;50.936;6.854;2022-12-11T00:59:57;48.20;;;27.88;;
3613;SDS011;1821;50.936;6.854;2022-12-11T01:00:39;56.00;;;29.17;;
3613;SDS011;1821;50.936;6.854;2022-12-11T01:01:23;47.88;;;27.70;;
3613;SDS011;1821;50.936;6.854;2022-12-11T01:02:06;46.00;;;27.55;;
3613;SDS011;1821;50.936;6.854;2022-12-11T01:02:48;49.75;;;28.70;;
3613;SDS011;1821;50.936;6.854;2022-12-11T01:03:30;52.35;;;29.88;;
3613;SDS011;1821;50.936;6.854;2022-12-11T01:04:12;50.70;;;29.15;;
3613;SDS011;1821;50.936;6.854;2022-12-11T01:04:53;49.15;;;28.58;;
3613;SDS011;1821;50.936;6.854;2022-12-11T01:05:35;51.67;;;28.30;;
3613;SDS011;1821;50.936;6.854;2022-12-11T01:06:18;47.70;;;28.40;;
3613;SDS011;1821;50.936;6.854;2022-12-11T01:07:04;47.78;;;28.88;;
3613;SDS011;1821;50.936;6.854;2022-12-11T01:07:46;48.42;;;27.17;;
3613;SDS011;1821;50.936;6.854;2022-12-11T01:08:27;47.78;;;28.27;;
3613;SDS011;1821;50.936;6.854;2022-12-11T01:09:15;49.42;;;28.10;;
3613;SDS011;1821;50.936;6.854;2022-12-11T01:10:15;47.58;;;28.88;;
3613;SDS011;1821;50.936;6.854;2022-12-11T01:11:07;49.80;;;29.15;;
3613;SDS011;1821;50.936;6.854;2022-12-11T01:11:51;47.88;;;27.45;;
3613;SDS011;1821;50.936;6.854;2022-12-11T01:12:32;41.78;;;26.45;;
3613;SDS011;1821;50.936;6.854;2022-12-11T01:13:14;42.75;;;25.33;;
3613;SDS011;1821;50.936;6.854;2022-12-11T01:13:56;49.35;;;26.15;;
3613;SDS011;1821;50.936;6.854;2022-12-11T01:14:38;48.13;;;25.83;;
3613;SDS011;1821;50.936;6.854;2022-12-11T01:15:20;44.42;;;26.50;;
3613;SDS011;1821;50.936;6.854;2022-12-11T01:16:07;48.60;;;27.33;;
3613;SDS011;1821;50.936;6.854;2022-12-11T01:16:51;45.05;;;26.67;;
3613;SDS011;1821;50.936;6.854;2022-12-11T01:17:33;47.08;;;26.27;;
3613;SDS011;1821;50.936;6.854;2022-12-11T01:18:15;46.50;;;26.42;;
3613;SDS011;1821;50.936;6.854;2022-12-11T01:18:57;47.15;;;27.92;;
3613;SDS011;1821;50.936;6.854;2022-12-11T01:19:39;43.33;;;25.80;;
3613;SDS011;1821;50.936;6.854;2022-12-11T01:20:24;47.17;;;26.05;;
3613;SDS011;1821;50.936;6.854;2022-12-11T01:21:08;45.92;;;25.77;;
3613;SDS011;1821;50.936;6.854;2022-12-11T01:21:54;42.80;;;24.98;;
3613;SDS011;1821;50.936;6.854;2022-12-11T01:22:36;42.25;;;26.13;;
3613;SDS011;1821;50.936;6.854;2022-12-11T01:23:17;41.53;;;25.25;;
3613;SDS011;1821;50.936;6.854;2022-12-11T01:24:02;43.40;;;25.13;;
3613;SDS011;1821;50.936;6.854;2022-12-11T01:24:44;47.95;;;26.23;;
3613;SDS011;1821;50.936;6.854;2022-12-11T01:25:28;45.55;;;26.65;;
3613;SDS011;1821;50.936;6.854;2022-12-11T01:26:13;46.67;;;26.92;;
3613;SDS011;1821;50.936;6.854;2022-12-11T01:26:55;45.65;;;25.70;;
3613;SDS011;1821;50.936;6.854;2022-12-11T01:27:38;42.88;;;25.35;;
3613;SDS011;1821;50.936;6.854;2022-12-11T01:28:20;45.28;;;25.67;;
3613;SDS011;1821;50.936;6.854;2022-12-11T01:29:02;44.88;;;24.52;;
3613;SDS011;1821;50.936;6.854;2022-12-11T01:29:43;42.75;;;25.25;;
3613;SDS011;1821;50.936;6.854;2022-12-11T01:30:25;41.97;;;25.15;;
3613;SDS011;1821;50.936;6.854;2022-12-11T01:31:08;41.47;;;24.57;;
3613;SDS011;1821;50.936;6.854;2022-12-11T01:31:55;42.05;;;24.80;;
3613;SDS011;1821;50.936;6.854;2022-12-11T01:32:37;43.63;;;25.00;;
3613;SDS011;1821;50.936;6.854;2022-12-11T01:33:19;42.90;;;24.80;;
3613;SDS011;1821;50.936;6.854;2022-12-11T01:34:00;40.20;;;23.48;;
3613;SDS011;1821;50.936;6.854;2022-12-11T01:34:45;38.50;;;23.42;;
3613;SDS011;1821;50.936;6.854;2022-12-11T01:35:27;40.58;;;24.05;;
3613;SDS011;1821;50.936;6.854;2022-12-11T01:36:09;43.20;;;25.40;;
3613;SDS011;1821;50.936;6.854;2022-12-11T01:36:57;47.63;;;26.23;;
3613;SDS011;1821;50.936;6.854;2022-12-11T01:37:38;43.45;;;23.90;;
3613;SDS011;1821;50.936;6.854;2022-12-11T01:38:20;46.30;;;25.83;;
3613;SDS011;1821;50.936;6.854;2022-12-11T01:39:02;55.45;;;27.05;;
3613;SDS011;1821;50.936;6.854;2022-12-11T01:39:44;46.92;;;25.23;;
3613;SDS011;1821;50.936;6.854;2022-12-11T01:40:28;46.90;;;26.55;;
3613;SDS011;1821;50.936;6.854;2022-12-11T01:41:10;49.15;;;26.83;;
3613;SDS011;1821;50.936;6.854;2022-12-11T01:41:56;45.65;;;25.48;;
3613;SDS011;1821;50.936;6.854;2022-12-11T01:42:38;42.92;;;26.63;;
3613;SDS011;1821;50.936;6.854;2022-12-11T01:43:20;46.88;;;26.85;;
3613;SDS011;1821;50.936;6.854;2022-12-11T01:45:17;51.22;;;27.35;;
3613;SDS011;1821;50.936;6.854;2022-12-11T01:45:20;49.50;;;26.80;;
3613;SDS011;1821;50.936;6.854;2022-12-11T01:46:12;49.78;;;26.67;;
3613;SDS011;1821;50.936;6.854;2022-12-11T01:46:53;50.03;;;26.90;;
3613;SDS011;1821;50.936;6.854;2022-12-11T01:47:38;46.45;;;26.42;;
3613;SDS011;1821;50.936;6.854;2022-12-11T01:48:21;42.72;;;25.27;;
3613;SDS011;1821;50.936;6.854;2022-12-11T01:49:08;46.28;;;25.98;;
3613;SDS011;1821;50.936;6.854;2022-12-11T01:49:55;45.65;;;24.95;;
3613;SDS011;1821;50.936;6.854;2022-12-11T01:50:38;43.83;;;26.02;;
3613;SDS011;1821;50.936;6.854;2022-12-11T01:51:30;48.60;;;24.25;;
3613;SDS011;1821;50.936;6.854;2022-12-11T01:52:18;46.15;;;26.25;;
3613;SDS011;1821;50.936;6.854;2022-12-11T01:53:03;42.55;;;25.42;;
3613;SDS011;1821;50.936;6.854;2022-12-11T01:53:50;48.78;;;25.35;;
3613;SDS011;1821;50.936;6.854;2022-12-11T01:54:48;45.92;;;25.50;;
3613;SDS011;1821;50.936;6.854;2022-12-11T01:55:31;43.58;;;25.35;;
3613;SDS011;1821;50.936;6.854;2022-12-11T01:56:13;43.35;;;24.25;;
3613;SDS011;1821;50.936;6.854;2022-12-11T01:56:57;40.00;;;24.52;;
3613;SDS011;1821;50.936;6.854;2022-12-11T01:57:43;45.42;;;25.83;;
3613;SDS011;1821;50.936;6.854;2022-12-11T01:58:30;44.20;;;24.38;;
3613;SDS011;1821;50.936;6.854;2022-12-11T01:59:14;41.35;;;24.02;;
3613;SDS011;1821;50.936;6.854;2022-12-11T01:59:59;41.83;;;24.08;;
3613;SDS011;1821;50.936;6.854;2022-12-11T02:00:40;44.88;;;25.67;;
3613;SDS011;1821;50.936;6.854;2022-12-11T02:01:30;48.83;;;26.75;;
3613;SDS011;1821;50.936;6.854;2022-12-11T02:02:23;44.92;;;25.02;;
3613;SDS011;1821;50.936;6.854;2022-12-11T02:03:08;46.65;;;25.17;;
3613;SDS011;1821;50.936;6.854;2022-12-11T02:03:51;49.47;;;25.45;;
3613;SDS011;1821;50.936;6.854;2022-12-11T02:04:35;47.35;;;26.15;;
3613;SDS011;1821;50.936;6.854;2022-12-11T02:05:19;45.28;;;25.08;;
3613;SDS011;1821;50.936;6.854;2022-12-11T02:06:03;43.58;;;25.00;;
3613;SDS011;1821;50.936;6.854;2022-12-11T02:06:48;45.13;;;24.05;;
3613;SDS011;1821;50.936;6.854;2022-12-11T02:07:36;44.60;;;24.60;;
3613;SDS011;1821;50.936;6.854;2022-12-11T02:08:23;44.55;;;25.45;;
3613;SDS011;1821;50.936;6.854;2022-12-11T02:09:06;45.60;;;25.83;;
3613;SDS011;1821;50.936;6.854;2022-12-11T02:10:17;46.78;;;26.25;;
3613;SDS011;1821;50.936;6.854;2022-12-11T02:11:07;43.83;;;25.67;;
3613;SDS011;1821;50.936;6.854;2022-12-11T02:13:11;46.15;;;24.35;;
3613;SDS011;1821;50.936;6.854;2022-12-11T02:15:34;45.10;;;23.40;;
3613;SDS011;1821;50.936;6.854;2022-12-11T02:18:24;38.35;;;23.73;;
3613;SDS011;1821;50.936;6.854;2022-12-11T02:19:23;45.65;;;25.50;;
3613;SDS011;1821;50.936;6.854;2022-12-11T02:20:21;40.20;;;23.60;;
3613;SDS011;1821;50.936;6.854;2022-12-11T02:21:28;39.92;;;23.88;;
3613;SDS011;1821;50.936;6.854;2022-12-11T02:22:53;44.67;;;24.40;;
3613;SDS011;1821;50.936;6.854;2022-12-11T02:23:50;44.25;;;24.55;;
3613;SDS011;1821;50.936;6.854;2022-12-11T02:26:46;42.40;;;24.23;;
3613;SDS011;1821;50.936;6.854;2022-12-11T02:28:07;42.92;;;23.90;;
3613;SDS011;1821;50.936;6.854;2022-12-11T02:29:06;44.00;;;23.20;;
3613;SDS011;1821;50.936;6.854;2022-12-11T02:29:59;37.75;;;23.20;;
3613;SDS011;1821;50.936;6.854;2022-12-11T02:30:53;40.58;;;23.90;;
3613;SDS011;1821;50.936;6.854;2022-12-11T02:31:44;40.42;;;23.98;;
3613;SDS011;1821;50.936;6.854;2022-12-11T02:33:14;42.90;;;23.02;;
3613;SDS011;1821;50.936;6.854;2022-12-11T02:34:00;42.30;;;23.60;;
3613;SDS011;1821;50.936;6.854;2022-12-11T02:34:50;44.15;;;23.90;;
3613;SDS011;1821;50.936;6.854;2022-12-11T02:35:43;42.47;;;22.80;;
3613;SDS011;1821;50.936;6.854;2022-12-11T02:36:28;44.45;;;23.95;;
3613;SDS011;1821;50.936;6.854;2022-12-11T02:37:15;40.78;;;22.20;;
3613;SDS011;1821;50.936;6.854;2022-12-11T02:38:02;38.92;;;23.65;;
3613;SDS011;1821;50.936;6.854;2022-12-11T02:38:48;42.17;;;22.85;;
3613;SDS011;1821;50.936;6.854;2022-12-11T02:39:33;38.83;;;21.90;;
3613;SDS011;1821;50.936;6.854;2022-12-11T02:40:18;44.10;;;22.77;;
3613;SDS011;1821;50.936;6.854;2022-12-11T02:41:03;38.78;;;21.00;;
3613;SDS011;1821;50.936;6.854;2022-12-11T02:41:48;39.78;;;21.92;;
3613;SDS011;1821;50.936;6.854;2022-12-11T02:42:31;38.67;;;22.67;;
3613;SDS011;1821;50.936;6.854;2022-12-11T02:43:14;37.25;;;21.38;;
3613;SDS011;1821;50.936;6.854;2022-12-11T02:43:58;36.63;;;22.15;;
3613;SDS011;1821;50.936;6.854;2022-12-11T02:44:45;37.85;;;22.45;;
3613;SDS011;1821;50.936;6.854;2022-12-11T02:45:28;37.10;;;21.27;;
3613;SDS011;1821;50.936;6.854;2022-12-11T02:46:11;35.67;;;21.55;;
3613;SDS011;1821;50.936;6.854;2022-12-11T02:46:54;34.33;;;20.33;;
3613;SDS011;1821;50.936;6.854;2022-12-11T02:47:36;35.83;;;20.90;;
3613;SDS011;1821;50.936;6.854;2022-12-11T02:48:19;37.70;;;21.70;;
3613;SDS011;1821;50.936;6.854;2022-12-11T02:49:04;36.67;;;22.92;;
3613;SDS011;1821;50.936;6.854;2022-12-11T02:49:48;36.95;;;22.38;;
3613;SDS011;1821;50.936;6.854;2022-12-11T02:50:32;37.97;;;22.45;;
3613;SDS011;1821;50.936;6.854;2022-12-11T02:51:27;34.33;;;19.88;;
3613;SDS011;1821;50.936;6.854;2022-12-11T02:52:13;35.83;;;20.52;;
3613;SDS011;1821;50.936;6.854;2022-12-11T02:52:58;38.33;;;22.08;;
3613;SDS011;1821;50.936;6.854;2022-12-11T02:53:42;38.53;;;22.73;;
3613;SDS011;1821;50.936;6.854;2022-12-11T02:54:26;37.65;;;21.58;;
3613;SDS011;1821;50.936;6.854;2022-12-11T02:55:12;39.20;;;21.67;;
3613;SDS011;1821;50.936;6.854;2022-12-11T02:55:58;40.85;;;21.83;;
3613;SDS011;1821;50.936;6.854;2022-12-11T02:56:49;40.08;;;20.67;;
3613;SDS011;1821;50.936;6.854;2022-12-11T02:58:42;39.28;;;20.38;;
3613;SDS011;1821;50.936;6.854;2022-12-11T02:59:36;37.70;;;22.02;;
3613;SDS011;1821;50.936;6.854;2022-12-11T03:00:20;37.85;;;21.15;;
3613;SDS011;1821;50.936;6.854;2022-12-11T03:01:02;41.23;;;21.80;;
3613;SDS011;1821;50.936;6.854;2022-12-11T03:01:48;38.90;;;21.52;;
3613;SDS011;1821;50.936;6.854;2022-12-11T03:02:30;37.17;;;21.33;;
3613;SDS011;1821;50.936;6.854;2022-12-11T03:03:12;35.78;;;20.80;;
3613;SDS011;1821;50.936;6.854;2022-12-11T03:03:55;35.45;;;21.45;;
3613;SDS011;1821;50.936;6.854;2022-12-11T03:04:38;37.38;;;20.83;;
3613;SDS011;1821;50.936;6.854;2022-12-11T03:05:23;38.22;;;21.15;;
3613;SDS011;1821;50.936;6.854;2022-12-11T03:06:08;35.50;;;20.95;;
3613;SDS011;1821;50.936;6.854;2022-12-11T03:06:54;36.88;;;22.08;;
3613;SDS011;1821;50.936;6.854;2022-12-11T03:07:42;42.33;;;22.00;;
3613;SDS011;1821;50.936;6.854;2022-12-11T03:08:28;38.22;;;20.67;;
3613;SDS011;1821;50.936;6.854;2022-12-11T03:09:09;35.22;;;20.38;;
3613;SDS011;1821;50.936;6.854;2022-12-11T03:09:51;36.55;;;20.80;;
3613;SDS011;1821;50.936;6.854;2022-12-11T03:10:37;37.03;;;21.50;;
3613;SDS011;1821;50.936;6.854;2022-12-11T03:11:18;37.83;;;21.58;;
3613;SDS011;1821;50.936;6.854;2022-12-11T03:12:00;35.45;;;21.48;;
3613;SDS011;1821;50.936;6.854;2022-12-11T03:12:43;32.45;;;20.00;;
3613;SDS011;1821;50.936;6.854;2022-12-11T03:13:33;31.75;;;19.90;;
3613;SDS011;1821;50.936;6.854;2022-12-11T03:14:15;37.38;;;20.90;;
3613;SDS011;1821;50.936;6.854;2022-12-11T03:14:57;35.10;;;19.77;;
3613;SDS011;1821;50.936;6.854;2022-12-11T03:18:33;39.50;;;22.15;;
3613;SDS011;1821;50.936;6.854;2022-12-11T03:20:09;32.38;;;20.30;;
3613;SDS011;1821;50.936;6.854;2022-12-11T03:21:04;35.45;;;18.98;;
3613;SDS011;1821;50.936;6.854;2022-12-11T03:21:58;36.92;;;20.80;;
3613;SDS011;1821;50.936;6.854;2022-12-11T03:22:53;35.95;;;20.48;;
3613;SDS011;1821;50.936;6.854;2022-12-11T03:23:45;34.00;;;19.70;;
3613;SDS011;1821;50.936;6.854;2022-12-11T03:24:45;34.50;;;19.10;;
3613;SDS011;1821;50.936;6.854;2022-12-11T03:26:35;36.90;;;20.67;;
3613;SDS011;1821;50.936;6.854;2022-12-11T03:28:17;35.00;;;19.92;;
3613;SDS011;1821;50.936;6.854;2022-12-11T03:29:02;33.75;;;19.48;;
3613;SDS011;1821;50.936;6.854;2022-12-11T03:29:59;35.90;;;20.20;;
3613;SDS011;1821;50.936;6.854;2022-12-11T03:30:45;34.35;;;18.35;;
3613;SDS011;1821;50.936;6.854;2022-12-11T03:32:35;31.33;;;19.13;;
3613;SDS011;1821;50.936;6.854;2022-12-11T03:33:25;30.92;;;18.67;;
3613;SDS011;1821;50.936;6.854;2022-12-11T03:34:17;32.17;;;20.05;;
3613;SDS011;1821;50.936;6.854;2022-12-11T03:35:07;32.60;;;19.15;;
3613;SDS011;1821;50.936;6.854;2022-12-11T03:35:55;33.78;;;20.05;;
3613;SDS011;1821;50.936;6.854;2022-12-11T03:36:43;30.77;;;19.00;;
3613;SDS011;1821;50.936;6.854;2022-12-11T03:37:27;33.10;;;20.08;;
3613;SDS011;1821;50.936;6.854;2022-12-11T03:38:20;29.98;;;18.77;;
3613;SDS011;1821;50.936;6.854;2022-12-11T03:39:06;33.65;;;20.20;;
3613;SDS011;1821;50.936;6.854;2022-12-11T03:39:57;33.17;;;20.27;;
3613;SDS011;1821;50.936;6.854;2022-12-11T03:40:43;27.63;;;17.13;;
3613;SDS011;1821;50.936;6.854;2022-12-11T03:41:29;30.45;;;18.17;;
3613;SDS011;1821;50.936;6.854;2022-12-11T03:42:13;32.05;;;19.27;;
3613;SDS011;1821;50.936;6.854;2022-12-11T03:42:57;32.08;;;18.90;;
3613;SDS011;1821;50.936;6.854;2022-12-11T03:43:39;30.90;;;18.75;;
3613;SDS011;1821;50.936;6.854;2022-12-11T03:44:21;30.90;;;18.77;;
3613;SDS011;1821;50.936;6.854;2022-12-11T03:45:07;32.25;;;19.00;;
3613;SDS011;1821;50.936;6.854;2022-12-11T03:45:53;34.40;;;19.17;;
3613;SDS011;1821;50.936;6.854;2022-12-11T03:46:37;33.47;;;20.02;;
3613;SDS011;1821;50.936;6.854;2022-12-11T03:47:23;35.53;;;20.33;;
3613;SDS011;1821;50.936;6.854;2022-12-11T03:48:07;33.25;;;19.95;;
3613;SDS011;1821;50.936;6.854;2022-12-11T03:48:51;36.90;;;20.75;;
3613;SDS011;1821;50.936;6.854;2022-12-11T03:49:37;30.05;;;17.63;;
3613;SDS011;1821;50.936;6.854;2022-12-11T03:50:24;30.00;;;18.48;;
3613;SDS011;1821;50.936;6.854;2022-12-11T03:51:09;30.40;;;17.88;;
3613;SDS011;1821;50.936;6.854;2022-12-11T03:51:51;30.88;;;18.88;;
3613;SDS011;1821;50.936;6.854;2022-12-11T03:52:36;30.23;;;18.02;;
3613;SDS011;1821;50.936;6.854;2022-12-11T03:53:26;28.38;;;18.33;;
3613;SDS011;1821;50.936;6.854;2022-12-11T03:54:08;31.50;;;18.55;;
3613;SDS011;1821;50.936;6.854;2022-12-11T03:54:51;31.93;;;19.03;;
3613;SDS011;1821;50.936;6.854;2022-12-11T03:55:35;29.20;;;18.52;;
3613;SDS011;1821;50.936;6.854;2022-12-11T03:56:19;32.40;;;19.20;;
3613;SDS011;1821;50.936;6.854;2022-12-11T03:57:04;31.33;;;19.23;;
3613;SDS011;1821;50.936;6.854;2022-12-11T03:57:54;31.90;;;17.90;;
3613;SDS011;1821;50.936;6.854;2022-12-11T03:58:35;30.50;;;18.42;;
3613;SDS011;1821;50.936;6.854;2022-12-11T03:59:17;29.88;;;19.33;;
3613;SDS011;1821;50.936;6.854;2022-12-11T03:59:59;32.08;;;19.70;;
3613;SDS011;1821;50.936;6.854;2022-12-11T04:00:43;30.02;;;18.48;;
3613;SDS011;1821;50.936;6.854;2022-12-11T04:01:25;29.70;;;17.92;;
3613;SDS011;1821;50.936;6.854;2022-12-11T04:02:07;30.70;;;18.10;;
3613;SDS011;1821;50.936;6.854;2022-12-11T04:02:55;30.17;;;18.75;;
3613;SDS011;1821;50.936;6.854;2022-12-11T04:03:57;28.23;;;16.73;;
3613;SDS011;1821;50.936;6.854;2022-12-11T04:04:40;28.00;;;16.95;;
3613;SDS011;1821;50.936;6.854;2022-12-11T04:05:22;27.85;;;16.90;;
3613;SDS011;1821;50.936;6.854;2022-12-11T04:06:04;26.45;;;17.60;;
3613;SDS011;1821;50.936;6.854;2022-12-11T04:06:46;28.25;;;18.30;;
3613;SDS011;1821;50.936;6.854;2022-12-11T04:07:27;28.23;;;18.15;;
3613;SDS011;1821;50.936;6.854;2022-12-11T04:08:11;30.98;;;18.73;;
3613;SDS011;1821;50.936;6.854;2022-12-11T04:08:53;27.13;;;16.92;;
3613;SDS011;1821;50.936;6.854;2022-12-11T04:09:35;27.63;;;16.80;;
3613;SDS011;1821;50.936;6.854;2022-12-11T04:10:17;30.83;;;19.15;;
3613;SDS011;1821;50.936;6.854;2022-12-11T04:11:01;26.80;;;17.10;;
3613;SDS011;1821;50.936;6.854;2022-12-11T04:12:02;29.25;;;17.23;;
3613;SDS011;1821;50.936;6.854;2022-12-11T04:12:44;30.33;;;18.40;;
3613;SDS011;1821;50.936;6.854;2022-12-11T04:13:26;29.73;;;17.42;;
3613;SDS011;1821;50.936;6.854;2022-12-11T04:14:09;26.55;;;17.00;;
3613;SDS011;1821;50.936;6.854;2022-12-11T04:15:11;26.45;;;17.00;;
3613;SDS011;1821;50.936;6.854;2022-12-11T04:15:53;25.08;;;16.83;;
3613;SDS011;1821;50.936;6.854;2022-12-11T04:16:35;25.00;;;16.73;;
3613;SDS011;1821;50.936;6.854;2022-12-11T04:17:17;24.75;;;15.88;;
3613;SDS011;1821;50.936;6.854;2022-12-11T04:18:22;23.80;;;15.63;;
3613;SDS011;1821;50.936;6.854;2022-12-11T04:19:24;26.60;;;17.70;;
3613;SDS011;1821;50.936;6.854;2022-12-11T04:20:26;24.27;;;15.90;;
3613;SDS011;1821;50.936;6.854;2022-12-11T04:21:27;25.70;;;16.50;;
3613;SDS011;1821;50.936;6.854;2022-12-11T04:22:27;23.92;;;16.00;;
3613;SDS011;1821;50.936;6.854;2022-12-11T04:23:31;24.75;;;15.35;;
3613;SDS011;1821;50.936;6.854;2022-12-11T04:24:32;22.23;;;15.38;;
3613;SDS011;1821;50.936;6.854;2022-12-11T04:25:14;25.95;;;16.02;;
3613;SDS011;1821;50.936;6.854;2022-12-11T04:26:03;26.02;;;16.33;;
3613;SDS011;1821;50.936;6.854;2022-12-11T04:26:57;22.70;;;14.52;;
3613;SDS011;1821;50.936;6.854;2022-12-11T04:27:39;24.15;;;14.40;;
3613;SDS011;1821;50.936;6.854;2022-12-11T04:28:30;23.98;;;16.15;;
3613;SDS011;1821;50.936;6.854;2022-12-11T04:29:14;24.92;;;16.20;;
3613;SDS011;1821;50.936;6.854;2022-12-11T04:29:56;25.98;;;15.90;;
3613;SDS011;1821;50.936;6.854;2022-12-11T04:30:37;24.10;;;15.52;;
3613;SDS011;1821;50.936;6.854;2022-12-11T04:31:20;23.98;;;15.70;;
3613;SDS011;1821;50.936;6.854;2022-12-11T04:32:02;25.05;;;15.75;;
3613;SDS011;1821;50.936;6.854;2022-12-11T04:32:44;23.23;;;16.35;;
3613;SDS011;1821;50.936;6.854;2022-12-11T04:33:26;26.00;;;16.30;;
3613;SDS011;1821;50.936;6.854;2022-12-11T04:34:08;24.58;;;15.95;;
3613;SDS011;1821;50.936;6.854;2022-12-11T04:34:50;23.95;;;15.40;;
3613;SDS011;1821;50.936;6.854;2022-12-11T04:35:31;22.52;;;15.38;;
3613;SDS011;1821;50.936;6.854;2022-12-11T04:36:13;24.65;;;15.60;;
3613;SDS011;1821;50.936;6.854;2022-12-11T04:36:55;22.73;;;15.43;;
3613;SDS011;1821;50.936;6.854;2022-12-11T04:37:37;23.05;;;15.38;;
3613;SDS011;1821;50.936;6.854;2022-12-11T04:38:20;23.08;;;15.50;;
3613;SDS011;1821;50.936;6.854;2022-12-11T04:39:02;23.92;;;16.85;;
3613;SDS011;1821;50.936;6.854;2022-12-11T04:39:46;23.73;;;15.63;;
3613;SDS011;1821;50.936;6.854;2022-12-11T04:40:27;22.95;;;15.45;;
3613;SDS011;1821;50.936;6.854;2022-12-11T04:41:10;23.08;;;14.80;;
3613;SDS011;1821;50.936;6.854;2022-12-11T04:41:54;25.80;;;16.25;;
3613;SDS011;1821;50.936;6.854;2022-12-11T04:42:35;26.27;;;16.23;;
3613;SDS011;1821;50.936;6.854;2022-12-11T04:43:17;23.75;;;14.93;;
3613;SDS011;1821;50.936;6.854;2022-12-11T04:43:59;22.48;;;14.70;;
3613;SDS011;1821;50.936;6.854;2022-12-11T04:44:41;23.80;;;16.17;;
3613;SDS011;1821;50.936;6.854;2022-12-11T04:45:22;25.67;;;16.42;;
3613;SDS011;1821;50.936;6.854;2022-12-11T04:46:10;25.50;;;16.30;;
3613;SDS011;1821;50.936;6.854;2022-12-11T04:46:54;23.70;;;15.73;;
3613;SDS011;1821;50.936;6.854;2022-12-11T04:47:36;23.63;;;14.88;;
3613;SDS011;1821;50.936;6.854;2022-12-11T04:48:19;24.27;;;15.60;;
3613;SDS011;1821;50.936;6.854;2022-12-11T04:49:03;24.27;;;15.63;;